Time;durP1;ratioP1;P1;durP2;ratioP2;P2;SDS_P1;SDS_P2;PMS_P1;PMS_P2;Temp;Humidity;BMP_temperature;BMP_pressure;BME280_temperature;BME280_humidity;BME280_pressure;Samples;Min_cycle;Max_cycle;Signal;HPM_P1;HPM_P2
2022/08/31 00:05:20;;;;;;;2.17;1.40;;;21.10;61.60;;;;;;5069230;28;20082;-71
2022/08/31 00:07:47;;;;;;;2.45;1.50;;;21.00;61.50;;;;;;5062223;28;20089;-71
2022/08/31 00:10:13;;;;;;;1.83;1.30;;;21.00;61.50;;;;;;5051512;28;20045;-71
2022/08/31 00:12:42;;;;;;;2.38;1.40;;;21.00;61.40;;;;;;5050530;28;20399;-71
2022/08/31 00:15:10;;;;;;;1.60;1.40;;;21.10;61.50;;;;;;5050556;28;20504;-71
2022/08/31 00:17:37;;;;;;;2.33;1.40;;;21.00;61.40;;;;;;5050413;28;20413;-71
2022/08/31 00:20:05;;;;;;;2.42;1.40;;;21.00;61.40;;;;;;5054806;28;20486;-71
2022/08/31 00:22:31;;;;;;;1.88;1.20;;;21.00;61.40;;;;;;5070646;28;20501;-71
2022/08/31 00:24:58;;;;;;;2.15;1.20;;;21.30;63.60;;;;;;5070559;28;20052;-70
2022/08/31 00:27:25;;;;;;;1.60;1.20;;;21.00;61.30;;;;;;5070497;28;20135;-71
2022/08/31 00:29:53;;;;;;;2.42;1.65;;;21.00;61.30;;;;;;5070836;28;20056;-71
2022/08/31 00:32:20;;;;;;;1.88;1.40;;;21.00;61.30;;;;;;5071538;28;20123;-71
2022/08/31 00:34:46;;;;;;;1.27;1.00;;;21.00;61.30;;;;;;5066415;28;20120;-71
2022/08/31 00:37:13;;;;;;;2.08;1.20;;;21.00;61.30;;;;;;5050355;28;20063;-71
2022/08/31 00:39:40;;;;;;;1.77;1.17;;;21.00;61.30;;;;;;5050435;28;20476;-71
2022/08/31 00:42:07;;;;;;;2.00;1.33;;;21.00;61.30;;;;;;5050294;28;20052;-71
2022/08/31 00:44:34;;;;;;;2.38;1.38;;;20.40;62.70;;;;;;5050304;28;20055;-71
2022/08/31 00:47:02;;;;;;;1.50;1.20;;;21.00;61.30;;;;;;5050412;28;20136;-72
2022/08/31 00:49:30;;;;;;;2.10;1.30;;;21.00;61.30;;;;;;5054212;28;20052;-71
2022/08/31 00:51:59;;;;;;;1.60;1.15;;;21.00;61.20;;;;;;5051248;28;20051;-73
2022/08/31 00:54:29;;;;;;;1.55;1.20;;;21.00;61.30;;;;;;5049908;28;20126;-71
2022/08/31 00:56:56;;;;;;;1.33;1.10;;;21.00;61.30;;;;;;5050373;28;20049;-71
2022/08/31 00:59:24;;;;;;;1.10;0.80;;;21.00;61.30;;;;;;5051239;28;20136;-71
2022/08/31 01:01:50;;;;;;;1.88;1.30;;;21.00;61.30;;;;;;5049734;28;20148;-71
2022/08/31 01:04:20;;;;;;;1.70;1.10;;;21.00;61.20;;;;;;5051077;28;20052;-71
2022/08/31 01:06:47;;;;;;;1.40;1.30;;;20.80;63.10;;;;;;5050212;28;20081;-71
2022/08/31 01:09:14;;;;;;;1.63;1.05;;;21.00;61.30;;;;;;5051373;28;20052;-71
2022/08/31 01:11:41;;;;;;;1.83;1.10;;;20.90;61.10;;;;;;5055845;28;20052;-71
2022/08/31 01:14:09;;;;;;;1.55;1.08;;;20.90;61.10;;;;;;5053634;28;20049;-73
2022/08/31 01:16:37;;;;;;;1.20;1.10;;;20.90;61.20;;;;;;5054517;28;20387;-72
2022/08/31 01:19:07;;;;;;;2.83;1.20;;;20.90;61.20;;;;;;5061617;28;20629;-71
2022/08/31 01:21:38;;;;;;;1.17;1.08;;;20.90;61.20;;;;;;5068606;28;20135;-71
2022/08/31 01:24:06;;;;;;;2.78;1.00;;;20.90;61.20;;;;;;5073268;28;20053;-71
2022/08/31 01:26:33;;;;;;;1.40;1.25;;;20.90;61.20;;;;;;5074403;28;20131;-71
2022/08/31 01:29:01;;;;;;;1.83;1.23;;;20.80;61.20;;;;;;5074406;28;20040;-71
2022/08/31 01:31:31;;;;;;;1.52;1.00;;;20.90;61.20;;;;;;5073229;28;20056;-71
2022/08/31 01:33:58;;;;;;;1.48;1.17;;;21.00;61.50;;;;;;5073233;28;20131;-71
2022/08/31 01:36:25;;;;;;;1.48;1.15;;;20.90;61.20;;;;;;5068600;28;20052;-72
2022/08/31 01:38:51;;;;;;;1.95;1.10;;;20.90;61.20;;;;;;5071027;28;20059;-71
2022/08/31 01:41:20;;;;;;;1.67;1.15;;;20.80;61.20;;;;;;5074130;28;20051;-71
2022/08/31 01:43:47;;;;;;;2.17;1.20;;;20.80;61.20;;;;;;5074272;28;20059;-72
2022/08/31 01:46:14;;;;;;;2.45;1.20;;;20.80;61.20;;;;;;5074143;28;20144;-72
2022/08/31 01:48:41;;;;;;;1.52;1.00;;;21.20;63.40;;;;;;5073087;28;20135;-72
2022/08/31 01:51:08;;;;;;;1.73;1.05;;;20.80;61.20;;;;;;5072372;28;20048;-71
2022/08/31 01:53:35;;;;;;;1.33;1.20;;;20.80;61.20;;;;;;5074133;28;20066;-73
2022/08/31 01:56:02;;;;;;;2.00;1.08;;;20.80;61.20;;;;;;5073897;28;20044;-71
2022/08/31 01:58:30;;;;;;;1.58;1.00;;;20.80;61.20;;;;;;5072942;28;20468;-71
2022/08/31 02:00:57;;;;;;;1.20;1.05;;;20.80;61.20;;;;;;5072616;28;20668;-71
2022/08/31 02:03:23;;;;;;;1.30;1.00;;;20.80;61.20;;;;;;5072826;28;20044;-71
2022/08/31 02:05:50;;;;;;;2.22;1.30;;;20.80;61.10;;;;;;5070621;28;20050;-71
2022/08/31 02:08:17;;;;;;;1.75;1.10;;;20.80;61.20;;;;;;5054036;28;20123;-71
2022/08/31 02:10:45;;;;;;;2.15;0.90;;;20.80;61.10;;;;;;5052262;28;20057;-72
2022/08/31 02:13:11;;;;;;;1.27;1.00;;;20.80;61.20;;;;;;5052662;28;20071;-73
2022/08/31 02:15:39;;;;;;;2.08;0.93;;;20.70;61.10;;;;;;5052479;28;20057;-71
2022/08/31 02:18:06;;;;;;;1.17;0.90;;;20.70;61.10;;;;;;5052856;28;20067;-71
2022/08/31 02:20:33;;;;;;;1.58;1.02;;;20.70;61.10;;;;;;5059689;28;20044;-71
2022/08/31 02:23:02;;;;;;;0.85;0.80;;;20.80;61.20;;;;;;5061625;28;20150;-72
2022/08/31 02:25:29;;;;;;;1.52;1.20;;;20.90;61.20;;;;;;5053116;28;20048;-71
2022/08/31 02:27:55;;;;;;;1.15;1.02;;;20.70;61.10;;;;;;5053554;28;20059;-71
2022/08/31 02:30:22;;;;;;;1.35;0.90;;;20.70;61.10;;;;;;5053113;28;20055;-71
2022/08/31 02:32:50;;;;;;;1.08;0.98;;;20.70;61.10;;;;;;5052489;28;20140;-71
2022/08/31 02:35:17;;;;;;;0.95;0.88;;;20.70;61.10;;;;;;5051701;28;20057;-71
2022/08/31 02:37:44;;;;;;;1.30;0.98;;;20.60;61.10;;;;;;5053283;28;20417;-71
2022/08/31 02:40:11;;;;;;;2.03;0.90;;;20.60;61.10;;;;;;5051733;28;20063;-72
2022/08/31 02:42:37;;;;;;;1.63;0.88;;;20.60;61.10;;;;;;5052092;28;20486;-71
2022/08/31 02:45:05;;;;;;;1.00;0.80;;;20.60;61.10;;;;;;5051788;28;20045;-71
2022/08/31 02:47:32;;;;;;;1.10;1.00;;;20.60;61.10;;;;;;5052101;28;20155;-71
2022/08/31 02:50:01;;;;;;;1.10;1.00;;;20.70;61.20;;;;;;5052782;28;20055;-72
2022/08/31 02:52:28;;;;;;;1.40;1.00;;;20.60;61.10;;;;;;5066827;28;20091;-71
2022/08/31 02:54:54;;;;;;;1.00;0.90;;;20.60;61.10;;;;;;5072744;28;20044;-71
2022/08/31 02:57:21;;;;;;;0.95;0.80;;;20.60;61.10;;;;;;5071853;28;20139;-71
2022/08/31 02:59:48;;;;;;;1.15;0.95;;;20.60;62.80;;;;;;5071932;28;20082;-71
2022/08/31 03:02:16;;;;;;;1.20;0.93;;;20.60;61.10;;;;;;5072507;28;20050;-72
2022/08/31 03:04:43;;;;;;;0.98;0.90;;;20.60;63.40;;;;;;5071319;28;20048;-71
2022/08/31 03:07:11;;;;;;;1.08;0.98;;;20.60;61.10;;;;;;5032481;28;20137;-72
2022/08/31 03:09:37;;;;;;;1.00;0.80;;;20.60;61.10;;;;;;5031430;28;20136;-72
2022/08/31 03:12:04;;;;;;;1.13;1.00;;;20.60;61.10;;;;;;5031524;28;20065;-71
2022/08/31 03:14:31;;;;;;;1.10;0.90;;;20.60;61.10;;;;;;5032394;28;20055;-72
2022/08/31 03:16:58;;;;;;;1.13;0.90;;;20.60;61.10;;;;;;5031567;28;20061;-71
2022/08/31 03:19:24;;;;;;;0.80;0.80;;;20.50;61.00;;;;;;5032503;28;20045;-71
2022/08/31 03:21:51;;;;;;;1.17;1.05;;;20.50;61.00;;;;;;5062427;28;20067;-71
2022/08/31 03:24:20;;;;;;;0.70;0.70;;;20.50;61.00;;;;;;5071180;28;20131;-71
2022/08/31 03:26:46;;;;;;;0.82;0.82;;;20.50;61.00;;;;;;5071132;28;20060;-71
2022/08/31 03:29:13;;;;;;;1.63;0.82;;;20.50;62.80;;;;;;5072369;28;20051;-71
2022/08/31 03:31:40;;;;;;;1.25;0.90;;;20.50;61.00;;;;;;5070182;28;20143;-72
2022/08/31 03:34:06;;;;;;;0.73;0.73;;;20.30;61.10;;;;;;5067462;28;20054;-71
2022/08/31 03:36:33;;;;;;;1.10;0.80;;;20.50;61.00;;;;;;5065059;28;20124;-71
2022/08/31 03:39:00;;;;;;;1.02;0.90;;;20.50;61.00;;;;;;5051143;28;20139;-72
2022/08/31 03:41:28;;;;;;;1.10;1.00;;;20.50;61.00;;;;;;5050918;28;20087;-71
2022/08/31 03:43:55;;;;;;;1.02;0.80;;;20.50;61.00;;;;;;5051870;28;20045;-72
2022/08/31 03:46:22;;;;;;;1.10;1.00;;;20.50;61.00;;;;;;5051968;28;20072;-72
2022/08/31 03:48:49;;;;;;;2.10;0.90;;;20.50;61.00;;;;;;5051925;28;20049;-71
2022/08/31 03:51:16;;;;;;;1.00;0.70;;;20.40;61.00;;;;;;5052835;28;20479;-71
2022/08/31 03:53:44;;;;;;;0.90;0.85;;;20.40;61.00;;;;;;5064223;28;20512;-71
2022/08/31 03:56:10;;;;;;;1.17;0.80;;;20.40;61.00;;;;;;5070732;28;20382;-71
2022/08/31 03:58:38;;;;;;;1.10;1.00;;;20.40;61.00;;;;;;5070648;28;20049;-71
2022/08/31 04:01:05;;;;;;;0.80;0.80;;;20.40;61.00;;;;;;5070814;28;20486;-71
2022/08/31 04:03:32;;;;;;;0.95;0.80;;;20.40;63.30;;;;;;5071823;28;20086;-71
2022/08/31 04:05:59;;;;;;;1.38;1.00;;;20.40;61.00;;;;;;5059673;28;20075;-71
2022/08/31 04:08:25;;;;;;;1.13;0.80;;;20.40;61.00;;;;;;5065233;28;20132;-71
2022/08/31 04:10:52;;;;;;;0.90;0.80;;;20.40;61.00;;;;;;5071802;28;20386;-71
2022/08/31 04:13:19;;;;;;;1.20;0.70;;;20.40;61.00;;;;;;5071764;28;20046;-71
2022/08/31 04:15:47;;;;;;;1.13;0.95;;;20.40;61.00;;;;;;5070461;28;20135;-71
2022/08/31 04:18:14;;;;;;;1.02;0.80;;;20.30;60.90;;;;;;5070534;28;20147;-71
2022/08/31 04:20:40;;;;;;;0.73;0.60;;;20.40;61.00;;;;;;5054577;28;20056;-71
2022/08/31 04:23:08;;;;;;;0.93;0.70;;;20.30;60.90;;;;;;5050665;28;20394;-71
2022/08/31 04:25:37;;;;;;;0.90;0.77;;;20.40;61.00;;;;;;5051538;28;20045;-71
2022/08/31 04:28:04;;;;;;;2.85;1.00;;;20.30;60.90;;;;;;5050488;28;20052;-71
2022/08/31 04:30:31;;;;;;;1.75;1.02;;;20.30;61.00;;;;;;5051220;28;20485;-71
2022/08/31 04:33:00;;;;;;;0.82;0.73;;;20.30;61.00;;;;;;5051875;28;20064;-71
2022/08/31 04:35:27;;;;;;;0.88;0.80;;;20.30;61.00;;;;;;5059251;28;20051;-71
2022/08/31 04:37:54;;;;;;;1.05;0.85;;;20.30;61.00;;;;;;5071492;28;20131;-71
2022/08/31 04:40:21;;;;;;;1.02;0.70;;;20.30;61.00;;;;;;5071031;28;20049;-72
2022/08/31 04:42:47;;;;;;;0.90;0.90;;;20.30;60.90;;;;;;5071445;28;20060;-73
2022/08/31 04:45:15;;;;;;;0.75;0.70;;;20.30;60.90;;;;;;5074284;28;20047;-72
2022/08/31 04:47:41;;;;;;;0.70;0.70;;;20.30;61.00;;;;;;5068284;28;20049;-71
2022/08/31 04:50:10;;;;;;;1.50;0.80;;;20.30;61.00;;;;;;5053848;28;20057;-71
2022/08/31 04:52:37;;;;;;;0.70;0.70;;;20.30;60.90;;;;;;5054223;28;20128;-71
2022/08/31 04:55:04;;;;;;;1.02;0.82;;;20.30;60.90;;;;;;5053849;28;20049;-71
2022/08/31 04:57:33;;;;;;;1.00;0.80;;;20.20;60.90;;;;;;5055090;28;20127;-71
2022/08/31 05:00:00;;;;;;;0.73;0.70;;;20.30;61.00;;;;;;5053715;28;20140;-72
2022/08/31 05:02:27;;;;;;;0.90;0.80;;;20.20;60.90;;;;;;5057800;28;20052;-71
2022/08/31 05:04:53;;;;;;;0.80;0.80;;;20.20;60.90;;;;;;5054009;28;20063;-71
2022/08/31 05:07:21;;;;;;;1.02;0.80;;;20.20;60.90;;;;;;5053845;28;20056;-71
2022/08/31 05:09:48;;;;;;;0.70;0.70;;;20.20;60.90;;;;;;5053792;28;20060;-71
2022/08/31 05:12:15;;;;;;;0.68;0.68;;;20.10;60.80;;;;;;5053389;28;20083;-71
2022/08/31 05:14:42;;;;;;;0.70;0.70;;;20.20;60.90;;;;;;5052774;28;20061;-71
2022/08/31 05:17:08;;;;;;;1.08;0.80;;;20.20;60.90;;;;;;5054949;28;20045;-71
2022/08/31 05:19:35;;;;;;;2.20;0.80;;;20.20;60.90;;;;;;5053310;28;20049;-71
2022/08/31 05:22:02;;;;;;;1.10;0.80;;;20.20;60.90;;;;;;5053301;28;20084;-71
2022/08/31 05:24:34;;;;;;;0.90;0.80;;;20.20;60.90;;;;;;5053164;28;20399;-72
2022/08/31 05:27:01;;;;;;;1.23;1.13;;;20.20;60.90;;;;;;5053296;28;20072;-72
2022/08/31 05:29:28;;;;;;;0.50;0.50;;;20.20;60.80;;;;;;5054708;28;20048;-71
2022/08/31 05:31:55;;;;;;;0.80;0.80;;;20.20;60.90;;;;;;5053012;28;20078;-71
2022/08/31 05:34:22;;;;;;;0.70;0.70;;;20.20;60.80;;;;;;5054606;28;20052;-71
2022/08/31 05:36:51;;;;;;;1.75;0.75;;;20.10;60.80;;;;;;5053248;28;20053;-72
2022/08/31 05:39:18;;;;;;;0.82;0.80;;;20.20;60.80;;;;;;5052842;28;20071;-71
2022/08/31 05:41:46;;;;;;;1.00;0.73;;;20.20;60.80;;;;;;5053701;28;20057;-71
2022/08/31 05:44:13;;;;;;;1.10;0.80;;;20.20;60.80;;;;;;5054317;28;20045;-73
2022/08/31 05:46:40;;;;;;;0.60;0.60;;;20.10;60.80;;;;;;5053004;28;20135;-71
2022/08/31 05:49:07;;;;;;;0.85;0.60;;;20.10;60.80;;;;;;5050148;28;20084;-71
2022/08/31 05:51:34;;;;;;;0.90;0.70;;;20.10;60.80;;;;;;5052609;28;20124;-71
2022/08/31 05:54:01;;;;;;;0.60;0.60;;;20.10;60.70;;;;;;5053595;28;20048;-71
2022/08/31 05:56:28;;;;;;;0.70;0.60;;;20.10;60.70;;;;;;5049013;28;20060;-73
2022/08/31 05:58:56;;;;;;;0.70;0.70;;;20.10;60.70;;;;;;5053526;28;20129;-73
2022/08/31 06:01:24;;;;;;;0.70;0.70;;;20.10;60.80;;;;;;5052395;28;20057;-73
2022/08/31 06:03:52;;;;;;;0.88;0.60;;;20.10;60.70;;;;;;5052178;28;20044;-73
2022/08/31 06:06:19;;;;;;;0.63;0.63;;;20.10;60.70;;;;;;5052467;28;20410;-73
2022/08/31 06:08:46;;;;;;;0.60;0.60;;;20.10;60.80;;;;;;5049818;28;20055;-72
2022/08/31 06:11:18;;;;;;;0.68;0.68;;;20.10;60.80;;;;;;5052482;28;20064;-73
2022/08/31 06:13:45;;;;;;;1.13;0.80;;;20.10;60.80;;;;;;5052638;28;20057;-73
2022/08/31 06:16:13;;;;;;;0.70;0.70;;;20.10;60.80;;;;;;5052595;28;20653;-74
2022/08/31 06:18:49;;;;;;;0.73;0.73;;;20.10;60.80;;;;;;5052442;28;20053;-74
2022/08/31 06:21:16;;;;;;;1.05;0.70;;;20.10;60.80;;;;;;5052221;28;20413;-74
2022/08/31 06:23:43;;;;;;;0.52;0.52;;;20.10;60.80;;;;;;5052549;28;20139;-74
2022/08/31 06:26:14;;;;;;;2.35;0.80;;;20.30;60.80;;;;;;5052522;28;20124;-73
2022/08/31 06:28:41;;;;;;;1.63;0.55;;;20.00;60.70;;;;;;5051271;28;20107;-74
2022/08/31 06:31:14;;;;;;;2.50;1.02;;;20.10;60.70;;;;;;5052120;28;20383;-71
2022/08/31 06:33:41;;;;;;;1.67;0.70;;;20.00;60.70;;;;;;5071504;28;20127;-71
2022/08/31 06:36:10;;;;;;;4.07;0.90;;;20.00;60.70;;;;;;5072139;28;20516;-71
2022/08/31 06:38:37;;;;;;;2.83;0.80;;;20.10;60.50;;;;;;5072109;28;20063;-72
2022/08/31 06:41:11;;;;;;;2.47;0.85;;;20.10;61.00;;;;;;5072276;28;20135;-71
2022/08/31 06:43:38;;;;;;;0.88;0.70;;;20.10;60.50;;;;;;5072282;28;20063;-72
2022/08/31 06:46:04;;;;;;;1.00;0.80;;;20.00;60.50;;;;;;5064563;28;20128;-71
2022/08/31 06:48:33;;;;;;;1.52;0.70;;;20.00;60.50;;;;;;5052268;28;20573;-72
2022/08/31 06:50:59;;;;;;;2.47;0.90;;;20.10;60.50;;;;;;5051752;28;20072;-72
2022/08/31 06:53:26;;;;;;;3.80;0.80;;;20.10;60.50;;;;;;5051550;28;20562;-71
2022/08/31 06:55:53;;;;;;;1.58;0.65;;;20.10;60.50;;;;;;5051495;28;20051;-71
2022/08/31 06:58:20;;;;;;;5.22;1.40;;;20.20;60.50;;;;;;5053718;28;20064;-73
2022/08/31 07:00:47;;;;;;;0.93;0.70;;;20.90;62.70;;;;;;5060380;28;20049;-71
2022/08/31 07:03:23;;;;;;;2.92;0.73;;;20.30;60.40;;;;;;5050801;28;20072;-71
2022/08/31 07:05:51;;;;;;;1.92;0.70;;;20.30;60.40;;;;;;5038405;28;20059;-71
2022/08/31 07:08:18;;;;;;;2.10;0.70;;;20.40;60.30;;;;;;5052509;28;20425;-71
2022/08/31 07:10:45;;;;;;;1.88;0.80;;;20.40;60.30;;;;;;5052687;28;20056;-71
2022/08/31 07:13:11;;;;;;;1.90;0.88;;;20.10;62.40;;;;;;5051691;28;20053;-71
2022/08/31 07:15:38;;;;;;;1.40;0.70;;;20.50;60.20;;;;;;5051228;28;20135;-72
2022/08/31 07:18:05;;;;;;;1.40;0.60;;;20.50;60.10;;;;;;5052184;28;20044;-71
2022/08/31 07:20:32;;;;;;;3.42;1.10;;;20.50;60.10;;;;;;5052062;28;20447;-72
2022/08/31 07:23:00;;;;;;;0.77;0.77;;;20.50;60.10;;;;;;5052403;28;20140;-71
2022/08/31 07:25:27;;;;;;;3.35;0.77;;;20.50;60.10;;;;;;5051389;28;20127;-71
2022/08/31 07:27:54;;;;;;;1.10;0.77;;;20.50;60.10;;;;;;5051190;28;20057;-71
2022/08/31 07:30:21;;;;;;;1.50;0.82;;;20.50;60.10;;;;;;5034914;28;20052;-72
2022/08/31 07:32:49;;;;;;;2.45;0.85;;;20.50;60.10;;;;;;5051161;28;20061;-71
2022/08/31 07:35:17;;;;;;;2.33;0.82;;;20.40;60.10;;;;;;5051093;28;20132;-72
2022/08/31 07:43:15;;;;;;;2.47;0.82;;;20.40;60.20;;;;;;5051225;28;20169;-73
2022/08/31 07:45:42;;;;;;;3.30;0.98;;;20.40;60.40;;;;;;5051238;28;20051;-71
2022/08/31 07:48:09;;;;;;;0.95;0.70;;;20.40;60.30;;;;;;5050387;28;20060;-72
2022/08/31 07:50:37;;;;;;;3.45;1.00;;;20.40;60.30;;;;;;5050820;28;20064;-71
2022/08/31 07:53:05;;;;;;;1.40;0.90;;;20.40;60.20;;;;;;5051049;28;20052;-71
2022/08/31 07:55:34;;;;;;;2.53;1.20;;;20.40;60.20;;;;;;5049937;28;20421;-73
2022/08/31 07:58:02;;;;;;;1.73;0.90;;;20.30;60.30;;;;;;5050484;28;20120;-73
2022/08/31 08:00:31;;;;;;;1.63;1.00;;;20.30;60.40;;;;;;5049178;28;20140;-75
2022/08/31 08:03:06;;;;;;;2.20;0.90;;;20.30;60.40;;;;;;5048975;28;20468;-75
2022/08/31 08:05:37;;;;;;;2.05;1.05;;;20.50;60.50;;;;;;5050738;28;20049;-74
2022/08/31 08:08:05;;;;;;;2.85;1.00;;;20.30;60.40;;;;;;5050339;28;20455;-73
2022/08/31 08:10:33;;;;;;;1.65;1.10;;;20.30;60.40;;;;;;5056024;28;20045;-72
2022/08/31 08:13:02;;;;;;;1.17;0.95;;;20.30;60.40;;;;;;5051782;28;20049;-71
2022/08/31 08:15:29;;;;;;;3.33;0.90;;;20.30;60.40;;;;;;5050790;28;20525;-71
2022/08/31 08:17:55;;;;;;;0.88;0.73;;;20.30;63.10;;;;;;5053026;28;20401;-73
2022/08/31 08:20:22;;;;;;;1.80;0.90;;;20.30;60.40;;;;;;5057206;28;20140;-72
2022/08/31 08:22:50;;;;;;;2.70;1.00;;;20.30;60.40;;;;;;5067245;28;20131;-72
2022/08/31 08:25:17;;;;;;;1.65;1.13;;;20.30;60.40;;;;;;5075511;28;20500;-75
2022/08/31 08:27:45;;;;;;;3.15;0.98;;;19.10;62.00;;;;;;5056920;28;20059;-71
2022/08/31 08:30:13;;;;;;;2.67;1.00;;;20.30;60.20;;;;;;5056913;28;20464;-71
2022/08/31 08:32:40;;;;;;;1.77;1.00;;;20.30;60.20;;;;;;5056923;28;20107;-75
2022/08/31 08:35:08;;;;;;;2.40;0.80;;;20.40;60.20;;;;;;5056375;28;20049;-74
2022/08/31 08:37:34;;;;;;;1.92;1.00;;;20.40;60.20;;;;;;5059448;28;20048;-72
2022/08/31 08:40:04;;;;;;;4.15;0.95;;;20.40;60.20;;;;;;5056697;28;20157;-73
2022/08/31 08:42:31;;;;;;;1.52;0.90;;;20.40;60.10;;;;;;5057234;28;20139;-72
2022/08/31 08:44:59;;;;;;;1.42;0.90;;;20.40;60.10;;;;;;5058342;28;20134;-73
2022/08/31 08:47:27;;;;;;;1.27;1.00;;;20.40;60.00;;;;;;5057156;28;20493;-73
2022/08/31 08:49:54;;;;;;;2.17;0.80;;;20.40;60.00;;;;;;5058219;28;20057;-73
2022/08/31 08:52:22;;;;;;;2.28;0.85;;;20.50;60.10;;;;;;5058235;28;20081;-73
2022/08/31 08:54:49;;;;;;;0.85;0.65;;;20.40;60.00;;;;;;5057069;28;20144;-72
2022/08/31 08:57:19;;;;;;;1.77;0.85;;;20.50;60.00;;;;;;5057092;28;20075;-73
2022/08/31 08:59:48;;;;;;;1.05;0.80;;;20.50;60.00;;;;;;5055847;28;20059;-71
2022/08/31 09:02:18;;;;;;;1.02;0.88;;;19.80;61.90;;;;;;5056853;28;20497;-71
2022/08/31 09:05:03;;;;;;;2.92;0.90;;;20.50;60.00;;;;;;5056931;28;20048;-72
2022/08/31 09:07:40;;;;;;;2.53;1.02;;;20.50;60.00;;;;;;5057029;28;20136;-71
2022/08/31 09:10:10;;;;;;;2.45;0.82;;;20.40;59.90;;;;;;5056771;28;20071;-71
2022/08/31 09:12:43;;;;;;;1.45;0.93;;;20.40;60.00;;;;;;5058110;28;20055;-71
2022/08/31 09:15:35;;;;;;;1.25;0.90;;;20.40;59.90;;;;;;5056997;28;20084;-73
2022/08/31 09:18:06;;;;;;;1.90;0.90;;;20.50;60.00;;;;;;5056761;28;20053;-74
2022/08/31 09:20:33;;;;;;;1.08;0.75;;;20.50;60.00;;;;;;5036355;28;20060;-73
2022/08/31 09:23:05;;;;;;;1.25;0.77;;;20.50;60.00;;;;;;5037301;28;20543;-73
2022/08/31 09:25:50;;;;;;;1.88;0.90;;;20.50;60.00;;;;;;5056666;28;20087;-73
2022/08/31 09:28:17;;;;;;;4.50;1.15;;;20.50;60.00;;;;;;5056794;28;20057;-74
2022/08/31 09:30:50;;;;;;;4.70;1.23;;;20.50;60.00;;;;;;5052772;28;20465;-74
2022/08/31 09:33:20;;;;;;;2.60;1.05;;;20.60;60.00;;;;;;5052920;28;20131;-74
2022/08/31 09:35:48;;;;;;;5.43;1.23;;;20.60;60.10;;;;;;5052340;28;20465;-73
2022/08/31 09:38:27;;;;;;;4.70;1.20;;;20.60;60.10;;;;;;5054096;28;20409;-72
2022/08/31 09:40:54;;;;;;;4.65;1.48;;;20.60;60.10;;;;;;5052995;28;20063;-73
2022/08/31 09:43:26;;;;;;;7.38;1.45;;;20.60;60.30;;;;;;5053608;28;20395;-74
2022/08/31 09:45:56;;;;;;;6.55;1.50;;;20.70;60.60;;;;;;5053477;28;20403;-74
2022/08/31 09:48:50;;;;;;;7.20;1.90;;;20.70;60.90;;;;;;5058680;28;20047;-73
2022/08/31 09:51:21;;;;;;;7.40;1.98;;;20.80;61.50;;;;;;5058435;28;20099;-72
2022/08/31 09:56:34;;;;;;;5.50;1.25;;;20.80;61.20;;;;;;5054956;28;20037;-75
2022/08/31 09:59:02;;;;;;;3.95;1.35;;;20.90;61.20;;;;;;5052679;28;20508;-72
2022/08/31 10:01:33;;;;;;;9.15;1.98;;;20.90;61.10;;;;;;5051535;28;20061;-72
2022/08/31 10:04:19;;;;;;;4.57;1.45;;;21.00;61.20;;;;;;5051639;28;20486;-72
2022/08/31 10:06:49;;;;;;;3.70;1.42;;;21.00;61.00;;;;;;5052192;28;20095;-72
2022/08/31 10:09:27;;;;;;;6.80;1.42;;;21.00;60.90;;;;;;5062434;28;20052;-71
2022/08/31 10:11:56;;;;;;;5.35;1.52;;;21.10;60.90;;;;;;5063460;28;20055;-71
2022/08/31 10:14:26;;;;;;;6.15;1.88;;;21.10;60.80;;;;;;5052161;28;20053;-74
2022/08/31 10:16:56;;;;;;;4.32;1.52;;;21.10;60.80;;;;;;5052375;28;20044;-70
2022/08/31 10:19:29;;;;;;;8.43;1.92;;;21.10;60.80;;;;;;5052581;28;20526;-74
2022/08/31 10:21:58;;;;;;;5.45;1.50;;;21.10;60.80;;;;;;5053205;28;20127;-74
2022/08/31 10:24:32;;;;;;;3.80;1.42;;;21.10;60.80;;;;;;5052529;28;20057;-70
2022/08/31 10:27:04;;;;;;;5.18;1.42;;;20.90;62.60;;;;;;5060496;28;20103;-74
2022/08/31 10:29:33;;;;;;;3.70;1.45;;;21.10;60.70;;;;;;5051857;28;20103;-71
2022/08/31 10:32:03;;;;;;;4.32;1.40;;;21.10;60.70;;;;;;5050515;28;20044;-71
2022/08/31 10:37:20;;;;;;;4.10;1.40;;;21.20;60.70;;;;;;5050851;28;20287;-70
2022/08/31 10:39:48;;;;;;;5.85;1.30;;;21.20;60.70;;;;;;5050816;28;20136;-73
2022/08/31 10:42:17;;;;;;;4.65;1.35;;;21.20;60.70;;;;;;5052958;28;20051;-70
2022/08/31 10:44:47;;;;;;;1.42;0.98;;;21.20;60.60;;;;;;5062495;28;20131;-70
2022/08/31 10:47:14;;;;;;;4.15;1.25;;;21.20;60.60;;;;;;5052253;28;20098;-73
2022/08/31 10:49:42;;;;;;;4.18;1.13;;;21.20;60.50;;;;;;5052085;28;20048;-71
2022/08/31 10:52:15;;;;;;;3.20;0.98;;;21.30;60.50;;;;;;5051896;28;20132;-71
2022/08/31 10:54:43;;;;;;;2.20;1.00;;;21.30;60.40;;;;;;5053032;28;20049;-74
2022/08/31 10:57:19;;;;;;;3.33;1.20;;;21.30;60.40;;;;;;5051809;28;20048;-73
2022/08/31 10:59:50;;;;;;;2.90;1.20;;;21.30;60.30;;;;;;5055271;28;20056;-74
2022/08/31 11:02:37;;;;;;;3.03;1.00;;;21.30;60.30;;;;;;5071634;28;20048;-73
2022/08/31 11:05:13;;;;;;;1.98;1.10;;;21.40;60.20;;;;;;5071766;28;20059;-71
2022/08/31 11:07:44;;;;;;;2.17;1.02;;;21.40;60.20;;;;;;5071792;28;20059;-74
2022/08/31 11:10:21;;;;;;;3.15;1.00;;;21.40;60.20;;;;;;5053142;28;20055;-74
2022/08/31 11:12:51;;;;;;;3.72;1.10;;;21.40;60.10;;;;;;5051645;28;20144;-71
2022/08/31 11:15:35;;;;;;;1.48;0.95;;;21.40;60.00;;;;;;5051511;28;20486;-73
2022/08/31 11:18:26;;;;;;;2.22;1.20;;;21.50;60.00;;;;;;5050974;28;20052;-73
2022/08/31 11:21:06;;;;;;;1.60;1.00;;;21.50;60.00;;;;;;5052217;28;20352;-74
2022/08/31 11:23:47;;;;;;;2.25;0.93;;;21.50;59.90;;;;;;5051621;28;20056;-72
2022/08/31 11:26:40;;;;;;;1.90;1.05;;;21.50;59.80;;;;;;5051155;28;20053;-74
2022/08/31 11:29:12;;;;;;;1.95;0.90;;;21.60;59.80;;;;;;5053067;28;20056;-73
2022/08/31 11:31:39;;;;;;;1.88;1.00;;;21.60;59.80;;;;;;5071040;28;20477;-73
2022/08/31 11:34:12;;;;;;;1.15;0.75;;;21.70;59.80;;;;;;5071058;28;20052;-74
2022/08/31 11:36:48;;;;;;;2.13;0.80;;;21.60;59.70;;;;;;5070900;28;20493;-74
2022/08/31 11:39:37;;;;;;;1.45;0.80;;;21.60;59.60;;;;;;5071140;28;20053;-71
2022/08/31 11:42:09;;;;;;;3.03;0.95;;;21.60;59.60;;;;;;5064559;28;20117;-72
2022/08/31 11:45:01;;;;;;;1.23;0.75;;;21.60;59.60;;;;;;5058158;28;20471;-70
2022/08/31 11:47:36;;;;;;;1.05;0.85;;;21.70;59.60;;;;;;5050637;28;20128;-71
2022/08/31 11:50:04;;;;;;;2.35;0.80;;;21.70;59.60;;;;;;5050143;28;20060;-73
2022/08/31 11:52:47;;;;;;;2.25;1.02;;;21.70;59.50;;;;;;5050167;28;20150;-73
2022/08/31 11:55:25;;;;;;;1.60;0.90;;;21.70;59.50;;;;;;5050788;28;20063;-74
2022/08/31 11:58:27;;;;;;;1.90;0.90;;;21.70;59.50;;;;;;5050977;28;20098;-74
2022/08/31 12:01:01;;;;;;;0.70;0.70;;;21.70;59.50;;;;;;5070503;28;20071;-73
2022/08/31 12:03:49;;;;;;;0.90;0.70;;;21.70;59.40;;;;;;5060596;28;20052;-72
2022/08/31 12:06:58;;;;;;;0.93;0.65;;;21.70;59.40;;;;;;5051540;28;20420;-71
2022/08/31 12:10:02;;;;;;;2.60;0.80;;;21.70;59.40;;;;;;5031067;28;20056;-72
2022/08/31 12:12:37;;;;;;;0.60;0.60;;;21.80;59.50;;;;;;5051728;28;20075;-72
2022/08/31 12:15:08;;;;;;;1.17;0.80;;;21.70;59.40;;;;;;5068175;28;20405;-73
2022/08/31 12:17:43;;;;;;;1.50;0.90;;;21.70;59.30;;;;;;5070200;28;20573;-73
2022/08/31 12:20:11;;;;;;;1.70;1.00;;;21.70;59.20;;;;;;5070432;28;20063;-71
2022/08/31 12:25:54;;;;;;;3.45;1.77;;;21.80;59.30;;;;;;5070360;28;20049;-74
2022/08/31 12:28:27;;;;;;;1.10;0.80;;;21.80;59.50;;;;;;5064306;28;20055;-74
2022/08/31 12:30:55;;;;;;;2.03;0.73;;;21.80;59.30;;;;;;5050296;28;20068;-73
2022/08/31 12:33:22;;;;;;;0.85;0.65;;;21.80;59.30;;;;;;5051545;28;20049;-73
2022/08/31 12:35:53;;;;;;;1.60;1.00;;;21.80;59.30;;;;;;5049995;28;20059;-72
2022/08/31 12:38:20;;;;;;;1.30;0.82;;;21.80;59.20;;;;;;5049759;28;20045;-73
2022/08/31 12:40:48;;;;;;;1.27;0.73;;;21.90;59.30;;;;;;5050219;28;20131;-73
2022/08/31 12:43:17;;;;;;;1.08;0.75;;;21.80;59.20;;;;;;5061901;28;20127;-73
2022/08/31 12:46:24;;;;;;;1.15;0.80;;;21.80;59.20;;;;;;5070028;28;20055;-73
2022/08/31 12:49:09;;;;;;;0.88;0.60;;;21.80;59.20;;;;;;5070185;28;20354;-74
2022/08/31 12:51:40;;;;;;;1.08;0.77;;;21.90;59.30;;;;;;5070091;28;20139;-73
2022/08/31 12:54:54;;;;;;;0.80;0.77;;;21.80;59.30;;;;;;5070067;28;20139;-71
2022/08/31 12:57:40;;;;;;;0.90;0.80;;;21.80;59.20;;;;;;5062992;28;20127;-74
2022/08/31 13:00:14;;;;;;;0.93;0.68;;;21.80;59.20;;;;;;5051040;28;20055;-74
2022/08/31 13:02:42;;;;;;;1.00;0.70;;;21.80;59.30;;;;;;5049870;28;20060;-71
2022/08/31 13:05:17;;;;;;;0.88;0.68;;;21.80;59.30;;;;;;5051090;28;20048;-70
2022/08/31 13:07:44;;;;;;;0.93;0.85;;;22.00;59.30;;;;;;5054902;28;20045;-72
2022/08/31 13:10:12;;;;;;;1.33;0.85;;;21.80;59.20;;;;;;5053379;28;20048;-72
2022/08/31 13:12:39;;;;;;;2.15;0.70;;;21.80;59.20;;;;;;5071069;28;20127;-71
2022/08/31 13:15:20;;;;;;;0.85;0.77;;;21.90;59.20;;;;;;5073415;28;20420;-70
2022/08/31 13:17:46;;;;;;;0.57;0.50;;;21.80;59.20;;;;;;5073645;28;20054;-73
2022/08/31 13:20:15;;;;;;;0.90;0.70;;;21.80;59.20;;;;;;5074312;28;20098;-74